sensor_id;sensor_type;location;lat;lon;timestamp;P1;durP1;ratioP1;P2;durP2;ratioP2
65092;SDS011;52025;50.288;2.794;2022-07-17T04:31:58;5.95;;;2.53;;
65092;SDS011;52025;50.288;2.794;2022-07-17T04:34:24;4.63;;;1.90;;
65092;SDS011;52025;50.288;2.794;2022-07-17T04:36:49;5.40;;;2.00;;
65092;SDS011;52025;50.288;2.794;2022-07-17T04:39:17;3.67;;;1.92;;
65092;SDS011;52025;50.288;2.794;2022-07-17T04:41:42;4.13;;;2.10;;
65092;SDS011;52025;50.288;2.794;2022-07-17T04:44:10;4.05;;;1.77;;
65092;SDS011;52025;50.288;2.794;2022-07-17T04:46:35;5.75;;;1.55;;
65092;SDS011;52025;50.288;2.794;2022-07-17T04:49:01;5.60;;;2.10;;
65092;SDS011;52025;50.288;2.794;2022-07-17T04:51:28;4.45;;;1.73;;
65092;SDS011;52025;50.288;2.794;2022-07-17T04:53:54;5.55;;;1.73;;
65092;SDS011;52025;50.288;2.794;2022-07-17T04:56:19;4.55;;;1.60;;
65092;SDS011;52025;50.288;2.794;2022-07-17T04:58:45;3.28;;;1.70;;
65092;SDS011;52025;50.288;2.794;2022-07-17T05:01:10;3.58;;;1.65;;
65092;SDS011;52025;50.288;2.794;2022-07-17T05:03:35;3.80;;;1.50;;
65092;SDS011;52025;50.288;2.794;2022-07-17T05:06:02;4.88;;;1.65;;
65092;SDS011;52025;50.288;2.794;2022-07-17T05:08:28;4.68;;;1.60;;
65092;SDS011;52025;50.288;2.794;2022-07-17T05:10:53;5.47;;;1.60;;
65092;SDS011;52025;50.288;2.794;2022-07-17T05:13:22;4.88;;;1.52;;
65092;SDS011;52025;50.288;2.794;2022-07-17T05:15:47;4.85;;;1.70;;
65092;SDS011;52025;50.288;2.794;2022-07-17T05:18:12;4.53;;;1.95;;
65092;SDS011;52025;50.288;2.794;2022-07-17T05:20:40;2.58;;;1.30;;
65092;SDS011;52025;50.288;2.794;2022-07-17T05:23:05;4.47;;;1.50;;
65092;SDS011;52025;50.288;2.794;2022-07-17T05:25:31;3.70;;;1.45;;
65092;SDS011;52025;50.288;2.794;2022-07-17T05:27:56;4.75;;;1.90;;
65092;SDS011;52025;50.288;2.794;2022-07-17T05:30:21;4.40;;;1.63;;
65092;SDS011;52025;50.288;2.794;2022-07-17T05:32:47;3.25;;;1.60;;
65092;SDS011;52025;50.288;2.794;2022-07-17T05:35:12;4.18;;;1.95;;
65092;SDS011;52025;50.288;2.794;2022-07-17T05:37:37;4.40;;;1.67;;
65092;SDS011;52025;50.288;2.794;2022-07-17T05:40:03;3.35;;;1.63;;
65092;SDS011;52025;50.288;2.794;2022-07-17T05:42:28;6.03;;;1.70;;
65092;SDS011;52025;50.288;2.794;2022-07-17T05:44:54;3.75;;;1.65;;
65092;SDS011;52025;50.288;2.794;2022-07-17T05:47:19;4.43;;;1.83;;
65092;SDS011;52025;50.288;2.794;2022-07-17T05:49:44;3.78;;;2.00;;
65092;SDS011;52025;50.288;2.794;2022-07-17T05:52:12;5.03;;;1.98;;
65092;SDS011;52025;50.288;2.794;2022-07-17T05:54:37;5.80;;;2.10;;
65092;SDS011;52025;50.288;2.794;2022-07-17T05:57:05;6.28;;;2.00;;
65092;SDS011;52025;50.288;2.794;2022-07-17T05:59:30;6.60;;;2.30;;
65092;SDS011;52025;50.288;2.794;2022-07-17T06:01:56;6.32;;;2.88;;
65092;SDS011;52025;50.288;2.794;2022-07-17T06:04:21;6.32;;;2.53;;
65092;SDS011;52025;50.288;2.794;2022-07-17T06:06:46;6.22;;;2.83;;
65092;SDS011;52025;50.288;2.794;2022-07-17T06:09:12;6.15;;;2.95;;
65092;SDS011;52025;50.288;2.794;2022-07-17T06:11:37;6.45;;;2.88;;
65092;SDS011;52025;50.288;2.794;2022-07-17T06:14:02;5.22;;;2.67;;
65092;SDS011;52025;50.288;2.794;2022-07-17T06:16:35;6.82;;;2.40;;
65092;SDS011;52025;50.288;2.794;2022-07-17T06:19:23;4.93;;;2.10;;
65092;SDS011;52025;50.288;2.794;2022-07-17T06:21:49;3.33;;;1.50;;
65092;SDS011;52025;50.288;2.794;2022-07-17T06:24:14;5.22;;;2.40;;
65092;SDS011;52025;50.288;2.794;2022-07-17T06:26:41;4.50;;;1.90;;
65092;SDS011;52025;50.288;2.794;2022-07-17T06:29:07;4.28;;;1.67;;
65092;SDS011;52025;50.288;2.794;2022-07-17T06:31:32;4.38;;;1.92;;
65092;SDS011;52025;50.288;2.794;2022-07-17T06:33:57;4.32;;;1.75;;
65092;SDS011;52025;50.288;2.794;2022-07-17T06:36:23;3.63;;;1.85;;
65092;SDS011;52025;50.288;2.794;2022-07-17T06:38:48;5.00;;;1.90;;
65092;SDS011;52025;50.288;2.794;2022-07-17T06:41:16;5.28;;;1.70;;
65092;SDS011;52025;50.288;2.794;2022-07-17T06:43:42;5.55;;;1.70;;
65092;SDS011;52025;50.288;2.794;2022-07-17T06:46:13;5.13;;;1.70;;
65092;SDS011;52025;50.288;2.794;2022-07-17T06:55:19;4.40;;;1.13;;
65092;SDS011;52025;50.288;2.794;2022-07-17T06:57:52;4.78;;;1.58;;
65092;SDS011;52025;50.288;2.794;2022-07-17T07:00:46;4.35;;;1.70;;
65092;SDS011;52025;50.288;2.794;2022-07-17T07:03:46;4.00;;;1.60;;
65092;SDS011;52025;50.288;2.794;2022-07-17T07:06:21;5.22;;;1.70;;
65092;SDS011;52025;50.288;2.794;2022-07-17T07:11:55;5.22;;;1.67;;
65092;SDS011;52025;50.288;2.794;2022-07-17T07:14:27;4.85;;;1.70;;
65092;SDS011;52025;50.288;2.794;2022-07-17T07:16:58;3.65;;;1.30;;
65092;SDS011;52025;50.288;2.794;2022-07-17T07:19:29;3.03;;;1.20;;
65092;SDS011;52025;50.288;2.794;2022-07-17T07:24:49;4.55;;;1.60;;
65092;SDS011;52025;50.288;2.794;2022-07-17T07:27:21;4.10;;;1.60;;
65092;SDS011;52025;50.288;2.794;2022-07-17T07:30:11;4.15;;;1.38;;
65092;SDS011;52025;50.288;2.794;2022-07-17T07:33:02;5.05;;;1.80;;
65092;SDS011;52025;50.288;2.794;2022-07-17T07:35:34;4.47;;;1.80;;
65092;SDS011;52025;50.288;2.794;2022-07-17T07:38:11;3.63;;;1.30;;
65092;SDS011;52025;50.288;2.794;2022-07-17T07:40:44;3.45;;;1.80;;
65092;SDS011;52025;50.288;2.794;2022-07-17T07:43:22;3.00;;;1.05;;
65092;SDS011;52025;50.288;2.794;2022-07-17T07:45:57;3.17;;;1.17;;
65092;SDS011;52025;50.288;2.794;2022-07-17T07:50:55;2.47;;;1.20;;
65092;SDS011;52025;50.288;2.794;2022-07-17T07:53:23;3.85;;;1.30;;
65092;SDS011;52025;50.288;2.794;2022-07-17T07:59:04;2.88;;;1.30;;
65092;SDS011;52025;50.288;2.794;2022-07-17T08:01:41;3.90;;;1.27;;
65092;SDS011;52025;50.288;2.794;2022-07-17T08:04:06;3.83;;;1.40;;
65092;SDS011;52025;50.288;2.794;2022-07-17T08:06:44;5.03;;;1.65;;
65092;SDS011;52025;50.288;2.794;2022-07-17T08:09:12;1.70;;;0.88;;
65092;SDS011;52025;50.288;2.794;2022-07-17T08:11:37;1.75;;;0.70;;
65092;SDS011;52025;50.288;2.794;2022-07-17T08:14:05;1.27;;;0.52;;
65092;SDS011;52025;50.288;2.794;2022-07-17T08:16:44;1.33;;;0.70;;
65092;SDS011;52025;50.288;2.794;2022-07-17T08:19:09;2.05;;;0.73;;
65092;SDS011;52025;50.288;2.794;2022-07-17T08:21:36;1.17;;;0.80;;
65092;SDS011;52025;50.288;2.794;2022-07-17T08:24:02;1.10;;;0.57;;
65092;SDS011;52025;50.288;2.794;2022-07-17T08:26:27;1.75;;;0.90;;
65092;SDS011;52025;50.288;2.794;2022-07-17T08:29:03;1.38;;;0.80;;
65092;SDS011;52025;50.288;2.794;2022-07-17T08:31:28;1.57;;;0.70;;
65092;SDS011;52025;50.288;2.794;2022-07-17T08:33:53;1.70;;;0.90;;
65092;SDS011;52025;50.288;2.794;2022-07-17T08:36:19;0.98;;;0.70;;
65092;SDS011;52025;50.288;2.794;2022-07-17T08:38:47;2.25;;;0.80;;
65092;SDS011;52025;50.288;2.794;2022-07-17T08:41:16;2.55;;;0.93;;
65092;SDS011;52025;50.288;2.794;2022-07-17T08:43:41;1.00;;;0.57;;
65092;SDS011;52025;50.288;2.794;2022-07-17T08:46:09;2.53;;;0.47;;
65092;SDS011;52025;50.288;2.794;2022-07-17T08:48:58;3.22;;;1.17;;
65092;SDS011;52025;50.288;2.794;2022-07-17T08:51:32;2.65;;;1.17;;
65092;SDS011;52025;50.288;2.794;2022-07-17T08:54:07;1.98;;;0.90;;
65092;SDS011;52025;50.288;2.794;2022-07-17T08:56:34;1.52;;;0.77;;
65092;SDS011;52025;50.288;2.794;2022-07-17T08:59:00;1.35;;;0.75;;
65092;SDS011;52025;50.288;2.794;2022-07-17T09:01:26;1.10;;;0.65;;
65092;SDS011;52025;50.288;2.794;2022-07-17T09:03:55;1.52;;;0.70;;
65092;SDS011;52025;50.288;2.794;2022-07-17T09:06:21;1.30;;;0.70;;
65092;SDS011;52025;50.288;2.794;2022-07-17T09:08:46;1.83;;;0.73;;
65092;SDS011;52025;50.288;2.794;2022-07-17T09:11:12;1.75;;;0.80;;
65092;SDS011;52025;50.288;2.794;2022-07-17T09:13:45;1.73;;;0.90;;
65092;SDS011;52025;50.288;2.794;2022-07-17T09:16:28;2.65;;;0.90;;
65092;SDS011;52025;50.288;2.794;2022-07-17T09:18:53;2.63;;;0.80;;
65092;SDS011;52025;50.288;2.794;2022-07-17T09:21:25;1.23;;;0.73;;
65092;SDS011;52025;50.288;2.794;2022-07-17T09:23:57;2.40;;;0.88;;
65092;SDS011;52025;50.288;2.794;2022-07-17T09:26:23;1.88;;;0.88;;
65092;SDS011;52025;50.288;2.794;2022-07-17T09:28:55;2.45;;;1.10;;
65092;SDS011;52025;50.288;2.794;2022-07-17T09:31:27;1.25;;;0.70;;
65092;SDS011;52025;50.288;2.794;2022-07-17T09:33:56;2.35;;;0.70;;
65092;SDS011;52025;50.288;2.794;2022-07-17T09:36:22;1.33;;;0.65;;
65092;SDS011;52025;50.288;2.794;2022-07-17T09:38:48;2.13;;;0.90;;
65092;SDS011;52025;50.288;2.794;2022-07-17T09:41:16;2.58;;;0.88;;
65092;SDS011;52025;50.288;2.794;2022-07-17T09:46:31;3.45;;;1.50;;
65092;SDS011;52025;50.288;2.794;2022-07-17T09:49:07;3.10;;;1.40;;
65092;SDS011;52025;50.288;2.794;2022-07-17T09:51:41;2.90;;;1.20;;
65092;SDS011;52025;50.288;2.794;2022-07-17T09:54:10;1.92;;;0.80;;
65092;SDS011;52025;50.288;2.794;2022-07-17T09:56:38;1.92;;;0.95;;
65092;SDS011;52025;50.288;2.794;2022-07-17T09:59:11;2.08;;;0.82;;
65092;SDS011;52025;50.288;2.794;2022-07-17T10:01:37;1.75;;;0.70;;
65092;SDS011;52025;50.288;2.794;2022-07-17T10:04:03;1.67;;;0.80;;
65092;SDS011;52025;50.288;2.794;2022-07-17T10:06:29;2.10;;;1.00;;
65092;SDS011;52025;50.288;2.794;2022-07-17T10:08:55;1.98;;;0.90;;
65092;SDS011;52025;50.288;2.794;2022-07-17T10:11:21;3.10;;;1.10;;
65092;SDS011;52025;50.288;2.794;2022-07-17T10:13:52;2.75;;;1.00;;
65092;SDS011;52025;50.288;2.794;2022-07-17T10:16:31;2.90;;;0.90;;
65092;SDS011;52025;50.288;2.794;2022-07-17T10:19:19;2.33;;;1.10;;
65092;SDS011;52025;50.288;2.794;2022-07-17T10:22:05;1.92;;;1.15;;
65092;SDS011;52025;50.288;2.794;2022-07-17T10:24:56;3.17;;;1.30;;
65092;SDS011;52025;50.288;2.794;2022-07-17T10:27:28;4.22;;;1.80;;
65092;SDS011;52025;50.288;2.794;2022-07-17T10:32:56;3.08;;;1.27;;
65092;SDS011;52025;50.288;2.794;2022-07-17T10:35:23;2.25;;;1.08;;
65092;SDS011;52025;50.288;2.794;2022-07-17T10:37:49;1.63;;;0.90;;
65092;SDS011;52025;50.288;2.794;2022-07-17T10:47:46;2.88;;;1.17;;
65092;SDS011;52025;50.288;2.794;2022-07-17T10:50:15;2.03;;;0.95;;
65092;SDS011;52025;50.288;2.794;2022-07-17T10:52:55;1.25;;;0.68;;
65092;SDS011;52025;50.288;2.794;2022-07-17T10:55:33;2.05;;;1.10;;
65092;SDS011;52025;50.288;2.794;2022-07-17T10:57:59;1.88;;;0.98;;
65092;SDS011;52025;50.288;2.794;2022-07-17T11:00:24;3.00;;;1.40;;
65092;SDS011;52025;50.288;2.794;2022-07-17T11:02:50;3.20;;;1.40;;
65092;SDS011;52025;50.288;2.794;2022-07-17T11:05:18;3.90;;;1.30;;
65092;SDS011;52025;50.288;2.794;2022-07-17T11:07:59;2.88;;;1.10;;
65092;SDS011;52025;50.288;2.794;2022-07-17T11:10:26;2.42;;;1.15;;
65092;SDS011;52025;50.288;2.794;2022-07-17T11:13:07;2.33;;;1.10;;
65092;SDS011;52025;50.288;2.794;2022-07-17T11:15:42;2.47;;;1.10;;
65092;SDS011;52025;50.288;2.794;2022-07-17T11:18:18;2.25;;;1.02;;
65092;SDS011;52025;50.288;2.794;2022-07-17T11:21:05;3.53;;;2.05;;
65092;SDS011;52025;50.288;2.794;2022-07-17T11:23:33;2.55;;;1.30;;
65092;SDS011;52025;50.288;2.794;2022-07-17T11:26:05;2.67;;;1.17;;
65092;SDS011;52025;50.288;2.794;2022-07-17T11:28:40;1.20;;;0.73;;
65092;SDS011;52025;50.288;2.794;2022-07-17T11:34:24;1.75;;;1.00;;
65092;SDS011;52025;50.288;2.794;2022-07-17T11:37:02;2.50;;;1.33;;
65092;SDS011;52025;50.288;2.794;2022-07-17T11:39:47;2.25;;;1.02;;
65092;SDS011;52025;50.288;2.794;2022-07-17T11:42:19;2.40;;;1.00;;
65092;SDS011;52025;50.288;2.794;2022-07-17T11:45:05;3.05;;;1.45;;
65092;SDS011;52025;50.288;2.794;2022-07-17T11:47:39;2.65;;;1.38;;
65092;SDS011;52025;50.288;2.794;2022-07-17T11:50:23;2.95;;;1.40;;
65092;SDS011;52025;50.288;2.794;2022-07-17T11:53:12;3.17;;;1.45;;
65092;SDS011;52025;50.288;2.794;2022-07-17T11:58:39;1.95;;;1.05;;
65092;SDS011;52025;50.288;2.794;2022-07-17T12:04:03;3.45;;;1.67;;
65092;SDS011;52025;50.288;2.794;2022-07-17T12:06:39;3.53;;;1.45;;
65092;SDS011;52025;50.288;2.794;2022-07-17T12:12:36;2.55;;;1.20;;
65092;SDS011;52025;50.288;2.794;2022-07-17T12:15:02;3.63;;;1.65;;
65092;SDS011;52025;50.288;2.794;2022-07-17T12:17:46;2.60;;;1.27;;
65092;SDS011;52025;50.288;2.794;2022-07-17T12:23:35;3.08;;;1.48;;
65092;SDS011;52025;50.288;2.794;2022-07-17T12:26:10;3.10;;;1.50;;
65092;SDS011;52025;50.288;2.794;2022-07-17T12:28:45;4.53;;;2.17;;
65092;SDS011;52025;50.288;2.794;2022-07-17T12:31:29;3.63;;;1.30;;
65092;SDS011;52025;50.288;2.794;2022-07-17T12:34:13;4.22;;;1.75;;
65092;SDS011;52025;50.288;2.794;2022-07-17T12:36:45;2.85;;;1.33;;
65092;SDS011;52025;50.288;2.794;2022-07-17T12:42:16;3.28;;;1.30;;
65092;SDS011;52025;50.288;2.794;2022-07-17T12:44:50;3.97;;;1.65;;
65092;SDS011;52025;50.288;2.794;2022-07-17T12:47:19;3.90;;;1.83;;
65092;SDS011;52025;50.288;2.794;2022-07-17T12:49:47;2.40;;;1.25;;
65092;SDS011;52025;50.288;2.794;2022-07-17T12:54:56;2.90;;;1.55;;
65092;SDS011;52025;50.288;2.794;2022-07-17T13:00:42;3.45;;;1.73;;
65092;SDS011;52025;50.288;2.794;2022-07-17T13:03:10;3.70;;;1.83;;
65092;SDS011;52025;50.288;2.794;2022-07-17T13:05:56;3.08;;;1.52;;
65092;SDS011;52025;50.288;2.794;2022-07-17T13:08:25;3.08;;;1.55;;
65092;SDS011;52025;50.288;2.794;2022-07-17T13:13:41;3.13;;;1.45;;
65092;SDS011;52025;50.288;2.794;2022-07-17T13:16:09;5.10;;;1.75;;
65092;SDS011;52025;50.288;2.794;2022-07-17T13:18:45;4.18;;;1.95;;
65092;SDS011;52025;50.288;2.794;2022-07-17T13:21:35;2.97;;;1.40;;
65092;SDS011;52025;50.288;2.794;2022-07-17T13:24:02;5.22;;;1.67;;
65092;SDS011;52025;50.288;2.794;2022-07-17T13:26:28;3.97;;;1.92;;
65092;SDS011;52025;50.288;2.794;2022-07-17T13:28:57;3.78;;;1.80;;
65092;SDS011;52025;50.288;2.794;2022-07-17T13:31:54;2.97;;;1.50;;
65092;SDS011;52025;50.288;2.794;2022-07-17T13:34:22;3.17;;;1.42;;
65092;SDS011;52025;50.288;2.794;2022-07-17T13:36:58;2.58;;;1.20;;
65092;SDS011;52025;50.288;2.794;2022-07-17T13:39:37;4.70;;;1.73;;
65092;SDS011;52025;50.288;2.794;2022-07-17T13:42:02;4.35;;;2.00;;
65092;SDS011;52025;50.288;2.794;2022-07-17T13:44:28;3.78;;;1.80;;
65092;SDS011;52025;50.288;2.794;2022-07-17T13:46:59;3.75;;;1.60;;
65092;SDS011;52025;50.288;2.794;2022-07-17T13:49:38;4.32;;;1.67;;
65092;SDS011;52025;50.288;2.794;2022-07-17T13:52:08;3.70;;;1.80;;
65092;SDS011;52025;50.288;2.794;2022-07-17T13:54:42;3.95;;;1.90;;
65092;SDS011;52025;50.288;2.794;2022-07-17T13:57:14;4.00;;;1.70;;
65092;SDS011;52025;50.288;2.794;2022-07-17T14:00:05;3.33;;;1.50;;
65092;SDS011;52025;50.288;2.794;2022-07-17T14:05:40;4.32;;;1.70;;
65092;SDS011;52025;50.288;2.794;2022-07-17T14:08:09;4.05;;;1.90;;
65092;SDS011;52025;50.288;2.794;2022-07-17T14:10:40;2.70;;;1.50;;
65092;SDS011;52025;50.288;2.794;2022-07-17T14:13:11;3.70;;;2.08;;
65092;SDS011;52025;50.288;2.794;2022-07-17T14:15:42;3.88;;;1.80;;
65092;SDS011;52025;50.288;2.794;2022-07-17T14:18:10;2.47;;;1.40;;
65092;SDS011;52025;50.288;2.794;2022-07-17T14:23:23;3.70;;;1.90;;
65092;SDS011;52025;50.288;2.794;2022-07-17T14:26:04;2.80;;;1.50;;
65092;SDS011;52025;50.288;2.794;2022-07-17T14:31:26;4.55;;;2.20;;
65092;SDS011;52025;50.288;2.794;2022-07-17T14:33:58;3.40;;;1.77;;
65092;SDS011;52025;50.288;2.794;2022-07-17T14:36:26;4.60;;;2.45;;
65092;SDS011;52025;50.288;2.794;2022-07-17T14:39:05;4.35;;;1.92;;
65092;SDS011;52025;50.288;2.794;2022-07-17T14:41:36;3.65;;;1.55;;
65092;SDS011;52025;50.288;2.794;2022-07-17T14:44:04;4.22;;;1.60;;
65092;SDS011;52025;50.288;2.794;2022-07-17T14:46:38;3.42;;;1.58;;
65092;SDS011;52025;50.288;2.794;2022-07-17T14:49:14;4.15;;;2.08;;
65092;SDS011;52025;50.288;2.794;2022-07-17T14:54:33;3.97;;;1.77;;
65092;SDS011;52025;50.288;2.794;2022-07-17T14:57:02;4.72;;;1.95;;
65092;SDS011;52025;50.288;2.794;2022-07-17T14:59:30;3.40;;;1.50;;
65092;SDS011;52025;50.288;2.794;2022-07-17T15:01:56;3.88;;;2.00;;
65092;SDS011;52025;50.288;2.794;2022-07-17T15:05:00;3.67;;;1.85;;
65092;SDS011;52025;50.288;2.794;2022-07-17T15:10:59;3.60;;;1.70;;
65092;SDS011;52025;50.288;2.794;2022-07-17T15:13:31;3.15;;;1.60;;
65092;SDS011;52025;50.288;2.794;2022-07-17T15:15:58;3.42;;;1.65;;
65092;SDS011;52025;50.288;2.794;2022-07-17T15:18:26;2.50;;;1.15;;
65092;SDS011;52025;50.288;2.794;2022-07-17T15:20:54;3.35;;;1.70;;
65092;SDS011;52025;50.288;2.794;2022-07-17T15:28:44;3.20;;;1.17;;
65092;SDS011;52025;50.288;2.794;2022-07-17T15:31:12;2.25;;;1.20;;
65092;SDS011;52025;50.288;2.794;2022-07-17T15:33:44;3.50;;;2.03;;
65092;SDS011;52025;50.288;2.794;2022-07-17T15:36:12;3.45;;;1.48;;
65092;SDS011;52025;50.288;2.794;2022-07-17T15:41:49;3.10;;;1.45;;
65092;SDS011;52025;50.288;2.794;2022-07-17T15:44:24;3.60;;;1.75;;
65092;SDS011;52025;50.288;2.794;2022-07-17T15:46:55;3.22;;;1.70;;
65092;SDS011;52025;50.288;2.794;2022-07-17T15:49:59;2.83;;;1.63;;
65092;SDS011;52025;50.288;2.794;2022-07-17T15:52:48;4.40;;;1.77;;
65092;SDS011;52025;50.288;2.794;2022-07-17T15:55:33;3.10;;;1.77;;
65092;SDS011;52025;50.288;2.794;2022-07-17T15:58:03;3.72;;;1.40;;
65092;SDS011;52025;50.288;2.794;2022-07-17T16:00:37;3.38;;;1.50;;
65092;SDS011;52025;50.288;2.794;2022-07-17T16:06:48;4.20;;;2.22;;
65092;SDS011;52025;50.288;2.794;2022-07-17T16:09:21;3.58;;;1.83;;
65092;SDS011;52025;50.288;2.794;2022-07-17T16:11:49;3.60;;;1.65;;
65092;SDS011;52025;50.288;2.794;2022-07-17T16:17:12;4.60;;;2.00;;
65092;SDS011;52025;50.288;2.794;2022-07-17T16:25:21;3.42;;;1.73;;
65092;SDS011;52025;50.288;2.794;2022-07-17T16:33:49;4.38;;;1.75;;
65092;SDS011;52025;50.288;2.794;2022-07-17T16:36:14;3.25;;;1.58;;
65092;SDS011;52025;50.288;2.794;2022-07-17T16:38:49;3.15;;;1.70;;
65092;SDS011;52025;50.288;2.794;2022-07-17T16:41:22;3.63;;;1.77;;
65092;SDS011;52025;50.288;2.794;2022-07-17T16:43:57;4.07;;;1.67;;
65092;SDS011;52025;50.288;2.794;2022-07-17T16:46:34;3.07;;;1.60;;
65092;SDS011;52025;50.288;2.794;2022-07-17T16:52:14;4.70;;;2.10;;
65092;SDS011;52025;50.288;2.794;2022-07-17T16:59:03;3.60;;;1.60;;
65092;SDS011;52025;50.288;2.794;2022-07-17T17:04:16;3.60;;;1.80;;
65092;SDS011;52025;50.288;2.794;2022-07-17T17:06:44;3.58;;;1.70;;
65092;SDS011;52025;50.288;2.794;2022-07-17T17:09:37;4.13;;;1.83;;
65092;SDS011;52025;50.288;2.794;2022-07-17T17:12:05;3.72;;;1.90;;
65092;SDS011;52025;50.288;2.794;2022-07-17T17:14:46;3.00;;;1.58;;
65092;SDS011;52025;50.288;2.794;2022-07-17T17:24:22;4.18;;;1.77;;
65092;SDS011;52025;50.288;2.794;2022-07-17T17:30:13;4.25;;;1.75;;
65092;SDS011;52025;50.288;2.794;2022-07-17T17:33:02;3.95;;;1.77;;
65092;SDS011;52025;50.288;2.794;2022-07-17T17:35:48;3.95;;;1.65;;
65092;SDS011;52025;50.288;2.794;2022-07-17T17:38:17;3.28;;;1.60;;
65092;SDS011;52025;50.288;2.794;2022-07-17T17:44:02;3.47;;;1.50;;
65092;SDS011;52025;50.288;2.794;2022-07-17T17:46:55;3.30;;;1.60;;
65092;SDS011;52025;50.288;2.794;2022-07-17T17:52:22;3.33;;;1.30;;
65092;SDS011;52025;50.288;2.794;2022-07-17T17:55:08;2.60;;;1.30;;
65092;SDS011;52025;50.288;2.794;2022-07-17T17:57:43;3.25;;;1.50;;
65092;SDS011;52025;50.288;2.794;2022-07-17T18:00:19;4.43;;;1.63;;
65092;SDS011;52025;50.288;2.794;2022-07-17T18:03:06;2.92;;;1.40;;
65092;SDS011;52025;50.288;2.794;2022-07-17T18:05:41;2.95;;;1.50;;
65092;SDS011;52025;50.288;2.794;2022-07-17T18:08:33;3.05;;;1.50;;
65092;SDS011;52025;50.288;2.794;2022-07-17T18:14:39;3.85;;;1.42;;
65092;SDS011;52025;50.288;2.794;2022-07-17T18:17:04;3.13;;;1.50;;
65092;SDS011;52025;50.288;2.794;2022-07-17T18:23:06;2.88;;;1.50;;
65092;SDS011;52025;50.288;2.794;2022-07-17T18:25:39;2.97;;;1.40;;
65092;SDS011;52025;50.288;2.794;2022-07-17T18:28:07;3.10;;;1.33;;
65092;SDS011;52025;50.288;2.794;2022-07-17T18:30:36;3.47;;;1.50;;
65092;SDS011;52025;50.288;2.794;2022-07-17T18:33:02;3.17;;;1.38;;
65092;SDS011;52025;50.288;2.794;2022-07-17T18:35:27;3.72;;;1.30;;
65092;SDS011;52025;50.288;2.794;2022-07-17T18:37:52;3.70;;;1.60;;
65092;SDS011;52025;50.288;2.794;2022-07-17T18:40:18;3.05;;;1.50;;
65092;SDS011;52025;50.288;2.794;2022-07-17T18:42:44;2.95;;;1.30;;
65092;SDS011;52025;50.288;2.794;2022-07-17T18:45:09;2.35;;;1.17;;
65092;SDS011;52025;50.288;2.794;2022-07-17T18:47:35;3.10;;;1.40;;
65092;SDS011;52025;50.288;2.794;2022-07-17T18:50:10;2.60;;;1.33;;
65092;SDS011;52025;50.288;2.794;2022-07-17T18:52:35;1.63;;;0.98;;
65092;SDS011;52025;50.288;2.794;2022-07-17T18:55:01;1.92;;;1.10;;
65092;SDS011;52025;50.288;2.794;2022-07-17T18:57:27;3.03;;;1.40;;
65092;SDS011;52025;50.288;2.794;2022-07-17T18:59:56;3.08;;;1.50;;
65092;SDS011;52025;50.288;2.794;2022-07-17T19:02:24;2.30;;;1.38;;
65092;SDS011;52025;50.288;2.794;2022-07-17T19:04:49;3.45;;;1.65;;
65092;SDS011;52025;50.288;2.794;2022-07-17T19:07:14;2.63;;;1.40;;
65092;SDS011;52025;50.288;2.794;2022-07-17T19:09:40;2.60;;;1.20;;
65092;SDS011;52025;50.288;2.794;2022-07-17T19:12:08;2.00;;;1.00;;
65092;SDS011;52025;50.288;2.794;2022-07-17T19:14:33;2.00;;;0.90;;
65092;SDS011;52025;50.288;2.794;2022-07-17T19:16:58;2.15;;;1.20;;
65092;SDS011;52025;50.288;2.794;2022-07-17T19:19:24;2.17;;;0.95;;
65092;SDS011;52025;50.288;2.794;2022-07-17T19:21:49;2.95;;;0.95;;
65092;SDS011;52025;50.288;2.794;2022-07-17T19:24:14;2.22;;;0.90;;
65092;SDS011;52025;50.288;2.794;2022-07-17T19:26:39;2.53;;;1.08;;
65092;SDS011;52025;50.288;2.794;2022-07-17T19:29:08;1.10;;;0.70;;
65092;SDS011;52025;50.288;2.794;2022-07-17T19:31:33;1.70;;;0.98;;
65092;SDS011;52025;50.288;2.794;2022-07-17T19:33:58;1.83;;;0.77;;
65092;SDS011;52025;50.288;2.794;2022-07-17T19:36:23;1.92;;;1.00;;
65092;SDS011;52025;50.288;2.794;2022-07-17T19:38:49;2.53;;;1.23;;
65092;SDS011;52025;50.288;2.794;2022-07-17T19:41:14;3.22;;;1.30;;
65092;SDS011;52025;50.288;2.794;2022-07-17T19:43:39;1.90;;;1.05;;
65092;SDS011;52025;50.288;2.794;2022-07-17T19:46:05;3.13;;;1.27;;
65092;SDS011;52025;50.288;2.794;2022-07-17T19:48:30;3.30;;;1.55;;
65092;SDS011;52025;50.288;2.794;2022-07-17T19:50:55;2.47;;;1.10;;
65092;SDS011;52025;50.288;2.794;2022-07-17T19:53:21;2.40;;;1.40;;
65092;SDS011;52025;50.288;2.794;2022-07-17T19:55:46;2.05;;;1.10;;
65092;SDS011;52025;50.288;2.794;2022-07-17T19:58:30;2.90;;;1.48;;
65092;SDS011;52025;50.288;2.794;2022-07-17T20:00:55;3.10;;;1.42;;
65092;SDS011;52025;50.288;2.794;2022-07-17T20:03:21;2.80;;;1.20;;
65092;SDS011;52025;50.288;2.794;2022-07-17T20:05:52;2.47;;;1.23;;
65092;SDS011;52025;50.288;2.794;2022-07-17T20:08:17;3.55;;;1.65;;
65092;SDS011;52025;50.288;2.794;2022-07-17T20:10:42;3.35;;;1.70;;
65092;SDS011;52025;50.288;2.794;2022-07-17T20:13:11;3.00;;;1.42;;
65092;SDS011;52025;50.288;2.794;2022-07-17T20:15:36;3.60;;;1.80;;
65092;SDS011;52025;50.288;2.794;2022-07-17T20:24:36;3.75;;;1.65;;
65092;SDS011;52025;50.288;2.794;2022-07-17T20:27:16;4.35;;;2.00;;
65092;SDS011;52025;50.288;2.794;2022-07-17T20:29:44;3.65;;;1.83;;
65092;SDS011;52025;50.288;2.794;2022-07-17T20:32:09;4.07;;;2.05;;
65092;SDS011;52025;50.288;2.794;2022-07-17T20:34:35;4.43;;;2.03;;
65092;SDS011;52025;50.288;2.794;2022-07-17T20:37:01;4.10;;;2.10;;
65092;SDS011;52025;50.288;2.794;2022-07-17T20:39:35;4.32;;;2.30;;
65092;SDS011;52025;50.288;2.794;2022-07-17T20:42:04;5.00;;;2.30;;
65092;SDS011;52025;50.288;2.794;2022-07-17T20:44:33;4.82;;;2.10;;
65092;SDS011;52025;50.288;2.794;2022-07-17T20:47:01;4.35;;;2.00;;
65092;SDS011;52025;50.288;2.794;2022-07-17T20:49:26;5.15;;;2.08;;
65092;SDS011;52025;50.288;2.794;2022-07-17T20:51:55;4.35;;;1.95;;
65092;SDS011;52025;50.288;2.794;2022-07-17T20:54:20;6.03;;;2.30;;
65092;SDS011;52025;50.288;2.794;2022-07-17T20:56:54;4.32;;;2.17;;
65092;SDS011;52025;50.288;2.794;2022-07-17T20:59:19;5.18;;;1.75;;
65092;SDS011;52025;50.288;2.794;2022-07-17T21:01:47;5.17;;;2.07;;
65092;SDS011;52025;50.288;2.794;2022-07-17T21:04:13;4.53;;;1.83;;
65092;SDS011;52025;50.288;2.794;2022-07-17T21:06:41;5.03;;;2.00;;
65092;SDS011;52025;50.288;2.794;2022-07-17T21:09:06;5.38;;;2.00;;
65092;SDS011;52025;50.288;2.794;2022-07-17T21:11:35;3.05;;;1.50;;
65092;SDS011;52025;50.288;2.794;2022-07-17T21:14:08;4.00;;;1.70;;
65092;SDS011;52025;50.288;2.794;2022-07-17T21:16:36;4.03;;;1.70;;
65092;SDS011;52025;50.288;2.794;2022-07-17T21:19:01;4.30;;;1.80;;
65092;SDS011;52025;50.288;2.794;2022-07-17T21:21:30;4.22;;;1.75;;
65092;SDS011;52025;50.288;2.794;2022-07-17T21:23:57;4.05;;;2.05;;
65092;SDS011;52025;50.288;2.794;2022-07-17T21:26:23;3.63;;;1.85;;
65092;SDS011;52025;50.288;2.794;2022-07-17T21:28:51;4.38;;;1.63;;
65092;SDS011;52025;50.288;2.794;2022-07-17T21:31:16;3.85;;;1.90;;
65092;SDS011;52025;50.288;2.794;2022-07-17T21:33:45;5.22;;;1.73;;
65092;SDS011;52025;50.288;2.794;2022-07-17T21:36:10;6.13;;;1.77;;
65092;SDS011;52025;50.288;2.794;2022-07-17T21:38:43;4.40;;;2.08;;
65092;SDS011;52025;50.288;2.794;2022-07-17T21:41:10;4.20;;;1.80;;
65092;SDS011;52025;50.288;2.794;2022-07-17T21:43:41;4.32;;;2.00;;
65092;SDS011;52025;50.288;2.794;2022-07-17T21:46:07;4.53;;;2.10;;
65092;SDS011;52025;50.288;2.794;2022-07-17T21:48:35;4.95;;;2.10;;
65092;SDS011;52025;50.288;2.794;2022-07-17T21:51:00;6.65;;;2.75;;
65092;SDS011;52025;50.288;2.794;2022-07-17T21:53:29;5.15;;;2.45;;
65092;SDS011;52025;50.288;2.794;2022-07-17T21:56:04;4.78;;;2.20;;
65092;SDS011;52025;50.288;2.794;2022-07-17T21:58:34;6.88;;;2.53;;
